BNC weather

Banco De La Republica Heliport
Pasto, NariƱo Department, Colombia

Public forecast

Using degrees Celsius for public forecast. Weather courtesy of forecast.io.

Closest aviation weather report (METAR) to Banco De La Republica Heliport

Report is more than 6 hours old.

Closest report is Antonio Narino Airport, 12.0 nm (22.2 km) N. Retrieved 2020/02/18 23:00 UTC (8 hours ago):

SKPS 182300Z 14013G24KT 9999 SCT030 24/09 A2999

Closest aviation forecast (TAF) to Banco De La Republica Heliport

Forecast is more than 12 hours old.

Closest forecast is Teniente Coronel Luis a Mantilla Airport, 34.7 nm (64.2 km) SW. Retrieved 2018/04/06 18:33 UTC (2 years ago):

TAF SPJC 061700Z 0618/0718 25008KT CAVOK TX26/0618Z TN18/0711ZLVA0883 061730 GG KWBCYMYX 061730 SEQUYZYX SPEQ SEQU 061728 SPECI SETU 061728Z 07006KT 9999 -TSRA FEW020CB BKN023 CB OVER STN